Карточка аэропорта UAKK

Внимание!
Информация на этой странице в стадии наполнения.
Если вы не увидели какой-то информации, или заметили неточность - пожалуйста сообщите нам!
Спасибо!
Команда RU-STAFF
Название аэропортаКараганда
Название аэропорта (англ.)Karaganda
Превышение1768 ft. (538.9 m.)
Координаты49°40.302', 73°20.118'
Высота перехода10000
Эшелон переходаby ATC
Коды ответчика0630-0637, 7220-7227
Зона ОрВДНур-Султан РПИ (UACN)
Данные METARUAKK 082200Z 08002MPS 5000 IC SCT004 M31/M35 Q1029 NOSIG RMK QBB140 QFE724/0966
Проноз погоды (TAF)UAKK 081701Z 0818/0918 VRB02MPS 3100 IC BR BKN007 BKN030 TXM20/0909Z TNM27/0901Z TEMPO 0818/0820 2000 -SN BR BKN003 TEMPO 0820/0904 0400 FZFG VV002 TEMPO 0904/0912 21005MPS -SN BKN011
NOTAMshow/hide NOTAM
AWOS   TABLE

Информация о ВПП

ВПП Длина ВПП (м.) Покрытие Курс ВПП Частота ILS
053601Железобетон50109.9
233601Железобетон230111.7

Диспетчерские позиции




Спутниковое изображение